createdAt,value
2019-05-19T00:02:23.184Z,12.50
2019-05-19T00:07:24.771Z,15.07
2019-05-19T00:12:26.305Z,16.20
2019-05-19T00:17:27.862Z,15.83
2019-05-19T00:22:29.528Z,17.67
2019-05-19T00:27:31.078Z,15.67
2019-05-19T00:32:32.692Z,19.03
2019-05-19T00:37:34.349Z,20.07
2019-05-19T00:42:35.907Z,17.87
2019-05-19T00:47:37.455Z,18.70
2019-05-19T00:52:38.983Z,20.63
2019-05-19T00:57:40.841Z,16.47
2019-05-19T01:02:42.599Z,17.20
2019-05-19T01:07:44.260Z,18.85
2019-05-19T01:12:45.852Z,18.73
2019-05-19T01:17:47.403Z,18.50
2019-05-19T01:22:48.952Z,18.70
2019-05-19T01:27:50.596Z,17.37
2019-05-19T01:32:52.251Z,16.83
2019-05-19T01:37:53.799Z,16.37
2019-05-19T01:42:55.494Z,15.30
2019-05-19T01:47:57.036Z,17.10
2019-05-19T01:52:58.592Z,15.17
2019-05-19T01:58:00.140Z,16.37
2019-05-19T02:03:01.692Z,16.57
2019-05-19T02:08:03.353Z,16.37
2019-05-19T02:13:05.424Z,16.43
2019-05-19T02:18:07.170Z,18.20
2019-05-19T02:23:08.824Z,17.00
2019-05-19T02:28:10.435Z,17.13
2019-05-19T02:33:11.958Z,15.87
2019-05-19T02:38:13.537Z,15.10
2019-05-19T02:43:16.298Z,20.27
2019-05-19T02:48:18.501Z,17.23
2019-05-19T02:53:20.267Z,16.83
2019-05-19T02:58:22.685Z,15.87
2019-05-19T03:03:24.251Z,17.33
2019-05-19T03:08:25.816Z,18.97
2019-05-19T03:13:27.398Z,23.63
2019-05-19T03:18:29.242Z,16.63
2019-05-19T03:23:30.838Z,15.80
2019-05-19T03:28:32.500Z,14.70
2019-05-19T03:33:35.989Z,15.70
2019-05-19T03:38:37.514Z,15.00
2019-05-19T03:43:39.074Z,17.00
2019-05-19T03:48:40.656Z,18.37
2019-05-19T03:53:42.188Z,17.50
2019-05-19T03:58:43.745Z,15.90
2019-05-19T04:03:45.293Z,15.57
2019-05-19T04:08:46.879Z,17.97
2019-05-19T04:13:48.434Z,19.10
2019-05-19T04:18:50.133Z,20.27
2019-05-19T04:23:51.679Z,20.63
2019-05-19T04:28:53.237Z,20.90
2019-05-19T04:33:54.778Z,24.10
2019-05-19T04:38:56.330Z,21.60
2019-05-19T04:43:57.879Z,20.07
2019-05-19T04:48:59.564Z,25.47
2019-05-19T04:54:01.121Z,16.23
2019-05-19T04:59:02.894Z,19.83
2019-05-19T05:04:04.467Z,20.03
2019-05-19T05:09:06.157Z,25.50
2019-05-19T05:14:07.709Z,21.00
2019-05-19T05:19:09.377Z,22.80
2019-05-19T05:24:11.050Z,19.97
2019-05-19T05:29:12.681Z,19.13
2019-05-19T05:34:14.260Z,20.20
2019-05-19T05:39:15.811Z,20.50
2019-05-19T05:44:17.361Z,21.13
2019-05-19T05:49:19.150Z,18.75
2019-05-19T05:54:20.702Z,18.77
2019-05-19T05:59:22.614Z,16.77
2019-05-19T06:04:24.155Z,20.57
2019-05-19T06:09:25.913Z,17.27
2019-05-19T06:14:27.569Z,19.02
2019-05-19T06:19:29.219Z,19.50
2019-05-19T06:24:30.789Z,18.48
2019-05-19T06:29:32.577Z,17.05
2019-05-19T06:34:34.143Z,15.98
2019-05-19T06:39:35.689Z,16.65
2019-05-19T06:44:37.250Z,14.23
2019-05-19T06:49:38.788Z,16.87
2019-05-19T06:54:40.346Z,16.27
2019-05-19T06:59:41.900Z,17.32
2019-05-19T07:04:43.594Z,13.95
2019-05-19T07:09:57.380Z,15.55
2019-05-19T07:14:48.859Z,17.27
2019-05-19T07:19:50.517Z,16.07
2019-05-19T07:24:52.053Z,14.70
2019-05-19T07:29:53.635Z,13.83
2019-05-19T07:34:55.288Z,14.78
2019-05-19T07:39:56.869Z,13.85
2019-05-19T07:44:58.603Z,14.63
2019-05-19T07:50:00.168Z,15.45
2019-05-19T07:55:01.852Z,15.78
2019-05-19T08:00:04.276Z,12.25
2019-05-19T08:05:05.946Z,13.38
2019-05-19T08:10:07.609Z,11.83
2019-05-19T08:15:09.477Z,13.98
2019-05-19T08:20:11.244Z,12.82
2019-05-19T08:25:12.994Z,12.03
2019-05-19T08:30:16.481Z,13.72
2019-05-19T08:35:18.047Z,13.95
2019-05-19T08:40:19.693Z,12.10
2019-05-19T08:45:21.289Z,12.33
2019-05-19T08:50:22.849Z,12.13
2019-05-19T08:55:24.405Z,12.98
2019-05-19T09:00:26.054Z,11.12
2019-05-19T09:05:27.781Z,11.85
2019-05-19T09:10:29.490Z,10.28
2019-05-19T09:15:31.163Z,10.43
2019-05-19T09:20:32.824Z,9.35
2019-05-19T09:25:34.360Z,9.48
2019-05-19T09:30:35.959Z,15.25
2019-05-19T09:35:37.508Z,11.60
2019-05-19T09:40:39.069Z,11.12
2019-05-19T09:45:40.724Z,9.30
2019-05-19T09:50:42.410Z,9.58
2019-05-19T09:55:43.961Z,9.43
2019-05-19T10:00:45.682Z,14.85
2019-05-19T10:05:47.352Z,11.50
2019-05-19T10:11:01.080Z,10.18
2019-05-19T10:16:02.764Z,8.10
2019-05-19T10:21:05.992Z,8.25
2019-05-19T10:26:07.546Z,8.00
2019-05-19T10:31:09.105Z,10.30
2019-05-19T10:36:10.672Z,8.30
2019-05-19T10:41:12.228Z,8.33
2019-05-19T10:46:13.786Z,8.38
2019-05-19T10:51:15.327Z,8.28
2019-05-19T10:56:19.127Z,9.53
2019-05-19T11:01:20.416Z,9.15
2019-05-19T11:06:21.957Z,10.03
2019-05-19T11:11:23.504Z,8.08
2019-05-19T11:16:25.047Z,8.80
2019-05-19T11:21:26.717Z,8.45
2019-05-19T11:26:28.270Z,10.45
2019-05-19T11:31:29.994Z,7.92
2019-05-19T11:36:31.553Z,7.15
2019-05-19T11:41:33.318Z,7.35
2019-05-19T11:46:35.060Z,8.20
2019-05-19T11:51:36.612Z,7.20
2019-05-19T11:56:38.147Z,6.92
2019-05-19T12:01:39.696Z,6.65
2019-05-19T12:06:41.404Z,7.12
2019-05-19T12:11:42.963Z,8.15
2019-05-19T12:16:44.538Z,9.13
2019-05-19T12:21:46.080Z,7.05
2019-05-19T12:26:48.486Z,8.10
2019-05-19T12:31:50.060Z,6.22
2019-05-19T12:36:51.732Z,5.97
2019-05-19T12:41:53.282Z,6.15
2019-05-19T12:46:54.827Z,6.20
2019-05-19T12:51:56.471Z,5.60
2019-05-19T12:56:58.031Z,5.80
2019-05-19T13:01:59.609Z,7.50
2019-05-19T13:07:01.157Z,5.03
2019-05-19T13:12:02.850Z,5.17
2019-05-19T13:17:04.625Z,7.00
2019-05-19T13:22:06.346Z,4.90
2019-05-19T13:27:08.004Z,8.13
2019-05-19T13:32:09.856Z,5.75
2019-05-19T13:37:11.564Z,7.97
2019-05-19T13:42:13.123Z,5.87
2019-05-19T13:47:14.991Z,5.20
2019-05-19T13:52:16.610Z,6.03
2019-05-19T13:57:18.188Z,4.55
2019-05-19T14:02:19.746Z,4.97
2019-05-19T14:07:21.323Z,5.50
2019-05-19T14:12:22.881Z,5.03
2019-05-19T14:17:24.467Z,5.35
2019-05-19T14:22:25.976Z,4.90
2019-05-19T14:27:30.763Z,5.17
2019-05-19T14:32:31.173Z,6.12
2019-05-19T14:37:32.746Z,6.10
2019-05-19T14:42:59.956Z,4.85
2019-05-19T14:48:01.636Z,4.50
2019-05-19T14:53:03.302Z,5.25
2019-05-19T14:58:04.971Z,4.75
2019-05-19T15:03:06.547Z,4.15
2019-05-19T15:08:08.097Z,3.80
2019-05-19T15:13:09.773Z,4.17
2019-05-19T15:18:11.326Z,4.70
2019-05-19T15:23:12.876Z,3.90
2019-05-19T15:28:14.422Z,4.20
2019-05-19T15:33:16.015Z,3.75
2019-05-19T15:38:17.551Z,6.12
2019-05-19T15:43:19.225Z,4.55
2019-05-19T15:48:20.785Z,4.25
2019-05-19T15:53:22.349Z,4.50
2019-05-19T15:58:23.908Z,6.70
2019-05-19T16:03:25.493Z,6.10
2019-05-19T16:08:27.089Z,4.17
2019-05-19T16:13:28.657Z,4.20
2019-05-19T16:18:30.222Z,6.08
2019-05-19T16:23:32.008Z,5.53
2019-05-19T16:28:33.565Z,3.90
2019-05-19T16:33:35.177Z,3.92
2019-05-19T16:38:36.837Z,3.47
2019-05-19T16:43:38.699Z,3.77
2019-05-19T16:48:40.255Z,6.42
2019-05-19T16:53:43.229Z,3.95
2019-05-19T16:58:45.875Z,4.97
2019-05-19T17:03:47.530Z,4.17
2019-05-19T17:08:49.099Z,5.28
2019-05-19T17:13:50.683Z,4.15
2019-05-19T17:18:52.230Z,4.55
2019-05-19T17:23:53.789Z,4.20
2019-05-19T17:29:00.734Z,4.20
2019-05-19T17:33:58.798Z,7.53
2019-05-19T17:39:00.447Z,4.50
2019-05-19T17:44:02.127Z,4.42
2019-05-19T17:49:03.804Z,4.30
2019-05-19T17:54:05.467Z,4.72
2019-05-19T17:59:16.130Z,4.08
2019-05-19T18:04:11.446Z,4.00
2019-05-19T18:09:13.030Z,3.83
2019-05-19T18:14:14.602Z,6.25
2019-05-19T18:19:16.292Z,4.75
2019-05-19T18:24:17.980Z,6.58
2019-05-19T18:29:30.998Z,4.50
2019-05-19T18:34:23.137Z,6.55
2019-05-19T18:39:24.830Z,4.85
2019-05-19T18:44:26.384Z,4.97
2019-05-19T18:49:27.967Z,5.28
2019-05-19T18:54:29.556Z,5.60
2019-05-19T18:59:46.050Z,4.65
2019-05-19T19:04:34.625Z,5.15
2019-05-19T19:09:36.195Z,5.65
2019-05-19T19:14:37.784Z,5.95
2019-05-19T19:19:39.421Z,6.10
2019-05-19T19:24:41.004Z,5.97
2019-05-19T19:29:42.829Z,8.83
2019-05-19T19:34:44.442Z,9.63
2019-05-19T19:39:46.062Z,5.97
2019-05-19T19:44:47.648Z,5.75
2019-05-19T19:49:49.207Z,5.03
2019-05-19T19:54:50.808Z,8.80
2019-05-19T19:59:52.418Z,5.97
2019-05-19T20:04:54.001Z,6.03
2019-05-19T20:09:55.568Z,7.62
2019-05-19T20:14:57.158Z,7.25
2019-05-19T20:19:58.704Z,8.20
2019-05-19T20:25:00.265Z,7.33
2019-05-19T20:30:02.084Z,6.45
2019-05-19T20:35:03.849Z,7.53
2019-05-19T20:40:05.657Z,6.35
2019-05-19T20:45:07.412Z,9.88
2019-05-19T20:50:08.979Z,10.45
2019-05-19T20:55:10.732Z,10.25
2019-05-19T21:00:12.498Z,7.95
2019-05-19T21:05:14.197Z,10.75
2019-05-19T21:10:15.765Z,6.95
2019-05-19T21:15:17.644Z,6.60
2019-05-19T21:20:19.341Z,5.70
2019-05-19T21:25:20.921Z,5.97
2019-05-19T21:30:22.491Z,5.78
2019-05-19T21:35:24.066Z,5.60
2019-05-19T21:40:25.620Z,35.52
2019-05-19T21:45:27.206Z,7.87
2019-05-19T21:50:28.756Z,6.58
2019-05-19T21:55:30.427Z,7.55
2019-05-19T22:00:32.510Z,7.15
2019-05-19T22:05:34.070Z,6.60
2019-05-19T22:10:35.621Z,6.12
2019-05-19T22:15:37.480Z,5.90
2019-05-19T22:20:39.122Z,6.72
2019-05-19T22:25:40.658Z,8.80
2019-05-19T22:30:42.239Z,6.35
2019-05-19T22:35:43.801Z,11.22
2019-05-19T22:40:45.356Z,6.83
2019-05-19T22:45:46.942Z,7.85
2019-05-19T22:50:48.626Z,6.92
2019-05-19T22:55:50.177Z,7.60
2019-05-19T23:00:51.734Z,7.58
2019-05-19T23:05:53.383Z,7.42
2019-05-19T23:10:54.956Z,7.15
2019-05-19T23:15:56.616Z,11.30
2019-05-19T23:20:58.366Z,8.28
2019-05-19T23:25:59.991Z,7.87
2019-05-19T23:31:01.553Z,11.15
2019-05-19T23:36:03.239Z,9.00
2019-05-19T23:41:04.804Z,8.78
2019-05-19T23:46:06.373Z,8.13
2019-05-19T23:51:07.980Z,7.70
2019-05-19T23:56:09.589Z,8.95
